Time;durP1;ratioP1;P1;durP2;ratioP2;P2;SDS_P1;SDS_P2;PMS_P1;PMS_P2;Temp;Humidity;BMP_temperature;BMP_pressure;BME280_temperature;BME280_humidity;BME280_pressure;Samples;Min_cycle;Max_cycle;Signal;HPM_P1;HPM_P2
2021/05/18 00:00:34;;;;;;;25.13;12.32;;;8.70;99.90;;;9.97;95.11;100007.72;4981501;28;20027;-83
2021/05/18 00:03:00;;;;;;;30.48;12.43;;;8.60;99.90;;;9.96;95.14;100013.66;4980987;28;20037;-81
2021/05/18 00:05:30;;;;;;;24.35;12.63;;;8.60;99.90;;;9.91;95.42;100011.19;4977220;28;20061;-85
2021/05/18 00:08:02;;;;;;;34.65;14.68;;;8.50;99.90;;;9.91;96.05;100013.97;4960569;28;20039;-84
2021/05/18 00:13:25;;;;;;;25.80;12.82;;;8.70;99.90;;;10.00;95.82;100017.31;4996991;28;20057;-85
2021/05/18 00:15:57;;;;;;;30.85;14.88;;;8.60;99.90;;;10.04;95.65;100021.81;4996241;28;20064;-85
2021/05/18 00:18:25;;;;;;;26.00;13.52;;;8.60;99.90;;;10.06;96.09;100018.63;4978970;28;20026;-86
2021/05/18 00:20:52;;;;;;;28.88;13.73;;;8.70;99.90;;;10.12;95.93;100019.94;4978561;28;20418;-86
2021/05/18 00:23:18;;;;;;;22.45;12.98;;;8.70;99.90;;;10.19;96.07;100017.31;4978814;28;20041;-85
2021/05/18 00:25:46;;;;;;;29.08;14.02;;;8.80;99.90;;;10.28;96.46;100023.47;4978956;28;20034;-86
2021/05/18 00:28:13;;;;;;;24.58;13.13;;;8.80;99.90;;;10.34;96.06;100013.59;4979590;28;20037;-85
2021/05/18 00:30:40;;;;;;;24.45;11.82;;;8.90;99.90;;;10.43;95.94;100018.94;4980720;28;20093;-89
2021/05/18 00:33:18;;;;;;;26.83;13.63;;;9.00;99.90;;;10.48;96.07;100022.22;4999840;28;20038;-82
2021/05/18 00:35:45;;;;;;;29.00;14.95;;;9.10;99.90;;;10.50;95.96;100019.06;4991618;28;20034;-85
2021/05/18 00:38:18;;;;;;;24.52;13.20;;;9.10;99.90;;;10.52;96.23;100017.53;4978658;28;20026;-87
2021/05/18 00:40:47;;;;;;;28.38;13.57;;;9.10;99.90;;;10.58;96.07;100029.19;4995605;28;20069;-87
2021/05/18 00:43:13;;;;;;;27.85;13.80;;;9.10;99.90;;;10.59;95.95;100017.63;4978945;28;20082;-86
2021/05/18 00:45:46;;;;;;;28.13;12.93;;;9.10;99.90;;;10.61;95.96;100014.47;4978188;28;20506;-86
2021/05/18 00:48:14;;;;;;;27.92;13.13;;;9.20;99.90;;;10.62;95.78;100021.69;4977779;28;20034;-86
2021/05/18 00:50:46;;;;;;;27.50;12.02;;;9.20;99.90;;;10.64;95.63;100021.28;4977566;28;20060;-85
2021/05/18 00:53:14;;;;;;;27.42;13.02;;;9.20;99.90;;;10.63;95.76;100020.47;4994209;28;20031;-88
2021/05/18 01:01:11;;;;;;;28.23;13.80;;;9.20;99.90;;;10.58;95.44;100023.59;4995358;28;20104;-84
2021/05/18 01:03:38;;;;;;;30.98;15.50;;;9.20;99.90;;;10.53;95.26;100021.91;4978383;28;20113;-85
2021/05/18 01:09:09;;;;;;;30.02;15.00;;;9.10;99.90;;;10.42;95.97;100023.72;4995591;28;20073;-87
2021/05/18 01:11:45;;;;;;;28.35;15.95;;;9.10;99.90;;;10.49;95.49;100026.66;4977594;28;20053;-86
2021/05/18 01:14:17;;;;;;;34.83;15.48;;;9.10;99.90;;;10.50;95.36;100022.66;4977549;28;20085;-86
2021/05/18 01:16:49;;;;;;;22.38;13.88;;;9.10;99.90;;;10.50;94.61;100027.44;4977737;28;20054;-87
2021/05/18 01:19:21;;;;;;;30.95;14.27;;;9.10;99.90;;;10.46;94.66;100019.03;4977408;28;20398;-86
2021/05/18 01:21:47;;;;;;;28.48;14.00;;;9.10;99.90;;;10.44;94.86;100024.16;4977074;28;20056;-85
2021/05/18 01:24:18;;;;;;;31.08;14.20;;;9.00;99.90;;;10.42;95.07;100028.50;4977728;28;20034;-86
2021/05/18 01:26:46;;;;;;;25.83;13.40;;;9.00;99.90;;;10.41;95.13;100024.91;4977202;28;20578;-82
2021/05/18 01:29:15;;;;;;;30.63;14.88;;;9.10;99.90;;;10.49;95.06;100023.84;4978097;28;20027;-87
2021/05/18 01:31:45;;;;;;;33.45;15.63;;;9.10;99.90;;;10.46;95.00;100030.19;4995135;28;20026;-87
2021/05/18 01:34:13;;;;;;;31.13;14.02;;;9.10;99.90;;;10.43;95.16;100016.97;4977800;28;20038;-85
2021/05/18 01:36:39;;;;;;;26.95;14.32;;;9.10;99.90;;;10.39;95.19;100024.47;4977363;28;20058;-85
2021/05/18 01:44:36;;;;;;;30.77;13.93;;;9.20;99.90;;;10.50;94.19;100030.22;4995044;28;20138;-84
2021/05/18 01:47:06;;;;;;;34.03;14.68;;;9.20;99.90;;;10.61;94.13;100027.63;4995025;28;20066;-84
2021/05/18 01:49:32;;;;;;;31.38;14.35;;;9.30;99.90;;;10.53;93.94;100021.91;4977763;28;20035;-86
2021/05/18 01:52:02;;;;;;;29.35;13.73;;;9.20;99.90;;;10.57;93.98;100016.38;4977667;28;20050;-84
2021/05/18 01:54:37;;;;;;;25.77;13.77;;;9.20;99.90;;;10.62;93.58;100013.28;4977477;28;20033;-87
2021/05/18 01:57:20;;;;;;;29.58;14.05;;;9.30;99.90;;;10.65;93.30;100017.31;4977444;28;20035;-86
2021/05/18 01:59:50;;;;;;;24.98;13.68;;;9.20;99.90;;;10.68;93.38;100014.59;4995230;28;20477;-86
2021/05/18 02:02:18;;;;;;;25.08;13.02;;;9.30;99.90;;;10.68;93.74;100017.38;4977387;28;20038;-84
2021/05/18 02:04:59;;;;;;;27.25;14.65;;;9.30;99.90;;;10.67;93.31;100010.19;4977652;28;20035;-84
2021/05/18 02:07:34;;;;;;;20.98;12.38;;;9.30;99.90;;;10.67;93.51;100017.75;4977407;28;20065;-86
2021/05/18 02:10:06;;;;;;;29.17;13.65;;;9.30;99.90;;;10.61;94.04;100030.41;4977752;28;20089;-85
2021/05/18 02:12:33;;;;;;;26.60;13.45;;;9.20;99.90;;;10.58;93.80;100032.78;4978074;28;20027;-82
2021/05/18 02:15:09;;;;;;;25.02;14.60;;;9.20;99.90;;;10.43;94.34;100032.91;4977656;28;20088;-84
2021/05/18 02:17:38;;;;;;;27.63;14.85;;;9.20;99.90;;;10.40;94.27;100033.66;4978680;28;20031;-85
2021/05/18 02:20:54;;;;;;;34.72;15.55;;;9.10;99.90;;;10.34;94.08;100038.72;4977850;28;20038;-84
2021/05/18 02:25:43;;;;;;;36.08;14.50;;;9.00;99.90;;;10.25;94.69;100031.75;5000989;28;20114;-90
2021/05/18 02:28:10;;;;;;;37.33;15.32;;;8.90;99.90;;;10.21;94.79;100025.34;4986136;28;20499;-85
2021/05/18 02:30:39;;;;;;;47.58;18.58;;;8.90;99.90;;;10.21;96.02;100040.06;4998271;28;20026;-86
2021/05/18 02:33:05;;;;;;;34.45;15.27;;;8.90;99.90;;;10.28;95.59;100023.47;4998937;28;20050;-87
2021/05/18 02:35:33;;;;;;;38.05;16.08;;;9.00;99.90;;;10.29;96.07;100033.47;4981218;28;20398;-83
2021/05/18 02:37:59;;;;;;;32.58;16.20;;;9.00;99.90;;;10.39;95.77;100040.41;4997789;28;20045;-86
2021/05/18 02:40:29;;;;;;;36.78;17.00;;;9.10;99.90;;;10.37;95.12;100037.19;4981523;28;20030;-85
2021/05/18 02:42:56;;;;;;;34.13;16.30;;;9.10;99.90;;;10.35;95.70;100043.13;4982219;28;20026;-85
2021/05/18 02:50:59;;;;;;;30.55;15.23;;;9.20;99.90;;;10.35;95.55;100043.13;5000471;28;20037;-84
2021/05/18 02:53:25;;;;;;;32.15;15.85;;;9.10;99.90;;;10.37;94.85;100056.72;4987703;28;20006;-84
2021/05/18 02:56:19;;;;;;;35.50;16.30;;;9.10;99.90;;;10.33;95.22;100047.47;5002195;28;20053;-81
2021/05/18 02:58:56;;;;;;;37.40;17.20;;;9.20;99.90;;;10.36;94.44;100043.94;4984688;28;20151;-85
2021/05/18 03:01:21;;;;;;;35.15;15.88;;;9.10;99.90;;;10.47;94.45;100050.50;4981120;28;20045;-84
2021/05/18 03:03:47;;;;;;;32.97;17.40;;;9.20;99.90;;;10.44;94.29;100049.28;4980735;28;20035;-82
2021/05/18 03:06:13;;;;;;;40.22;18.20;;;9.20;99.90;;;10.54;94.15;100053.44;4980912;28;20037;-84
2021/05/18 03:08:40;;;;;;;35.90;17.27;;;9.20;99.90;;;10.46;94.71;100055.31;4981675;28;20110;-85
2021/05/18 03:11:09;;;;;;;37.08;18.38;;;9.20;99.90;;;10.41;95.25;100041.66;4980668;28;20030;-84
2021/05/18 03:13:37;;;;;;;41.90;19.63;;;9.20;99.90;;;10.49;95.15;100042.59;4996431;28;20073;-86
2021/05/18 03:16:04;;;;;;;35.85;17.20;;;9.20;99.90;;;10.53;94.60;100057.44;4980119;28;20026;-86
2021/05/18 03:18:32;;;;;;;42.58;19.52;;;9.20;99.90;;;10.45;96.02;100047.28;4978875;28;20102;-85
2021/05/18 03:20:58;;;;;;;34.28;18.02;;;9.20;99.90;;;10.48;95.81;100046.56;4979960;28;20117;-85
2021/05/18 03:23:24;;;;;;;41.03;19.15;;;9.20;99.90;;;10.38;95.79;100045.19;4980104;28;20121;-87
2021/05/18 03:25:51;;;;;;;34.03;18.58;;;9.10;99.90;;;10.37;96.26;100045.56;4981226;28;20088;-83
2021/05/18 03:28:18;;;;;;;39.05;19.20;;;9.20;99.90;;;10.33;96.90;100053.88;4998378;28;20160;-87
2021/05/18 03:31:08;;;;;;;44.08;21.65;;;9.20;99.90;;;10.40;96.28;100051.19;4980684;28;20026;-84
2021/05/18 03:36:18;;;;;;;43.15;20.33;;;9.10;99.90;;;10.45;96.10;100053.69;4997410;28;20057;-88
2021/05/18 03:38:48;;;;;;;38.08;19.30;;;9.10;99.90;;;10.44;96.33;100051.25;4977140;28;20034;-87
2021/05/18 03:41:23;;;;;;;37.28;19.20;;;9.10;99.90;;;10.42;96.42;100050.84;4997224;28;20109;-85
2021/05/18 03:54:37;;;;;;;38.15;20.77;;;9.10;99.90;;;10.50;96.37;100060.94;5001545;28;20061;-85
2021/05/18 04:02:47;;;;;;;37.60;20.13;;;9.10;99.90;;;10.48;96.97;100061.31;4996299;28;20077;-86
2021/05/18 04:18:58;;;;;;;44.75;21.73;;;9.20;99.90;;;10.58;96.82;100069.09;4962106;29;20062;-86
2021/05/18 04:49:06;;;;;;;38.70;22.38;;;9.40;99.90;;;10.86;96.10;100081.91;4960466;28;20050;-86
2021/05/18 04:51:41;;;;;;;39.60;21.67;;;9.40;99.90;;;10.80;96.27;100081.44;4960030;29;20043;-82
2021/05/18 05:15:44;;;;;;;32.63;19.13;;;9.70;99.90;;;11.18;95.31;100107.56;5000187;28;20027;-86
2021/05/18 05:18:32;;;;;;;34.92;19.70;;;9.70;99.90;;;11.20;94.97;100105.22;4987149;28;20019;-80
2021/05/18 05:21:19;;;;;;;30.50;19.13;;;9.80;99.90;;;11.15;95.67;100113.91;4999603;28;20033;-81
2021/05/18 05:23:48;;;;;;;32.10;19.35;;;9.80;99.90;;;11.20;95.59;100108.03;4967388;28;20107;-86
2021/05/18 05:26:18;;;;;;;29.85;18.10;;;9.80;99.90;;;11.09;96.19;100108.66;4996448;28;20548;-84
2021/05/18 05:28:44;;;;;;;27.00;16.35;;;9.80;99.90;;;11.25;95.83;100118.88;4980786;28;20031;-85
2021/05/18 05:31:10;;;;;;;27.52;16.27;;;9.80;99.90;;;11.32;95.32;100114.22;4997466;28;20069;-81
2021/05/18 05:33:40;;;;;;;26.23;15.35;;;9.90;99.90;;;11.35;95.02;100107.06;4999924;28;20054;-82
2021/05/18 05:39:22;;;;;;;18.35;12.43;;;9.90;99.90;;;11.50;94.17;100112.47;5002362;28;20042;-86
2021/05/18 05:42:02;;;;;;;18.65;12.30;;;10.00;99.90;;;11.46;94.79;100108.81;4985950;28;20030;-85
2021/05/18 05:44:29;;;;;;;18.08;12.35;;;10.10;99.90;;;11.58;94.13;100110.59;4987959;28;20053;-85
2021/05/18 05:46:58;;;;;;;21.13;14.43;;;10.10;99.90;;;11.50;94.85;100104.09;4988476;28;20031;-86
2021/05/18 05:49:26;;;;;;;18.52;12.98;;;10.10;99.90;;;11.67;94.36;100113.91;5000188;28;20033;-84
2021/05/18 05:51:52;;;;;;;17.15;12.65;;;10.20;99.90;;;11.63;94.05;100110.25;4982330;28;20026;-85
2021/05/18 05:54:19;;;;;;;21.40;13.00;;;10.20;99.90;;;11.69;93.72;100110.75;4998431;28;20402;-85
2021/05/18 05:56:45;;;;;;;21.10;12.15;;;10.20;99.90;;;11.73;93.54;100112.44;4979718;28;20034;-85
2021/05/18 05:59:36;;;;;;;20.05;12.90;;;10.20;99.90;;;11.68;93.74;100120.31;4982465;28;20030;-82
2021/05/18 06:02:20;;;;;;;19.67;12.80;;;10.20;99.90;;;11.53;94.63;100119.31;4982174;28;20517;-85
2021/05/18 06:04:46;;;;;;;19.67;11.90;;;10.10;99.90;;;11.57;94.14;100120.16;4986874;28;20034;-87
2021/05/18 06:07:35;;;;;;;22.77;12.63;;;10.20;99.90;;;11.65;93.78;100127.50;4984105;28;20030;-85
2021/05/18 06:42:56;;;;;;;;;;;;;;;;;;;;;
2021/05/18 10:52:06;;;;;;;12.68;7.70;;;12.00;99.90;;;12.95;81.68;100254.38;4923063;29;20048;-84
2021/05/18 10:54:41;;;;;;;11.45;8.32;;;11.60;99.90;;;12.82;84.36;100260.63;4936293;29;20036;-85
2021/05/18 10:57:33;;;;;;;12.20;8.30;;;11.50;99.90;;;12.60;85.56;100263.19;4920596;29;20437;-83
2021/05/18 13:05:32;;;;;;;5.82;5.05;;;18.30;99.90;;;20.76;49.27;100253.75;4936114;29;20079;-83
2021/05/18 13:08:12;;;;;;;5.45;4.28;;;18.50;99.90;;;20.85;50.03;100248.28;4940181;29;20066;-85
2021/05/18 13:13:55;;;;;;;6.13;4.95;;;18.60;99.90;;;21.26;52.59;100270.53;4941144;29;20059;-85
2021/05/18 13:16:35;;;;;;;7.97;5.00;;;18.80;99.90;;;21.33;48.04;100266.72;4931906;29;20035;-84
2021/05/18 13:19:13;;;;;;;7.60;5.13;;;19.00;99.90;;;20.82;47.55;100252.00;4949852;29;20024;-85
2021/05/18 13:22:01;;;;;;;5.68;4.20;;;18.90;99.90;;;21.24;48.72;100258.00;4951950;29;20052;-86
2021/05/18 13:26:58;;;;;;;7.32;5.30;;;18.90;99.90;;;20.79;46.66;100260.56;4936841;29;20035;-83
2021/05/18 13:29:26;;;;;;;6.43;4.47;;;18.80;98.70;;;20.97;48.77;100263.84;4935026;29;20178;-82
2021/05/18 13:31:55;;;;;;;6.32;3.90;;;18.90;99.90;;;21.00;48.49;100265.78;4935798;29;20031;-83
2021/05/18 13:34:24;;;;;;;6.07;4.57;;;19.00;99.90;;;20.39;48.63;100257.72;4937183;29;20035;-84
2021/05/18 13:36:50;;;;;;;8.10;4.80;;;18.50;99.90;;;19.60;49.20;100267.19;4936482;29;20032;-82
2021/05/18 13:39:23;;;;;;;5.75;4.80;;;17.80;99.90;;;18.69;51.60;100262.34;4937004;29;20035;-81
2021/05/18 13:41:50;;;;;;;7.65;5.88;;;17.10;99.90;;;17.71;55.53;100281.06;4952621;29;20032;-83
2021/05/18 13:44:17;;;;;;;7.10;5.43;;;16.30;99.90;;;17.13;57.35;100273.34;4953416;28;20090;-81
2021/05/18 13:46:46;;;;;;;8.90;5.88;;;15.60;99.90;;;16.81;61.07;100271.50;4938289;28;20042;-83
2021/05/18 13:49:18;;;;;;;9.50;6.82;;;15.20;99.90;;;15.98;66.50;100274.09;4939152;29;20035;-83
2021/05/18 13:51:46;;;;;;;10.75;6.45;;;14.60;99.90;;;15.50;71.04;100273.69;4940561;29;20024;-86
2021/05/18 13:54:12;;;;;;;8.68;7.07;;;14.10;99.90;;;15.17;72.88;100274.00;4935639;28;20035;-85
2021/05/18 13:56:38;;;;;;;9.52;8.20;;;13.60;99.90;;;14.85;75.48;100271.09;4934739;29;20039;-85
2021/05/18 13:59:09;;;;;;;9.98;8.10;;;13.30;99.90;;;14.30;77.64;100273.19;4936098;28;20040;-85
2021/05/18 14:01:38;;;;;;;11.18;8.40;;;12.90;99.90;;;14.15;79.13;100268.69;4934840;29;20028;-86
2021/05/18 14:04:06;;;;;;;10.35;7.88;;;12.60;99.90;;;13.94;80.17;100269.34;4935927;29;20503;-87
2021/05/18 14:06:36;;;;;;;10.55;8.48;;;12.50;99.90;;;13.63;82.15;100258.69;4936166;29;20039;-84
2021/05/18 14:09:02;;;;;;;11.45;7.60;;;12.40;99.90;;;13.48;81.53;100263.38;4939679;29;20029;-84
2021/05/18 14:11:30;;;;;;;12.15;8.00;;;12.10;99.90;;;13.33;81.97;100250.38;4953719;29;20031;-86
2021/05/18 14:13:57;;;;;;;9.77;7.82;;;12.00;99.90;;;13.31;82.54;100251.97;4954215;28;20103;-85
2021/05/18 14:16:25;;;;;;;11.98;7.60;;;12.00;99.90;;;13.31;83.29;100257.59;4953841;28;20038;-85
2021/05/18 14:18:55;;;;;;;12.43;8.38;;;11.90;99.90;;;13.16;83.35;100259.44;4954006;29;20086;-83
2021/05/18 14:21:25;;;;;;;13.48;7.60;;;11.70;99.90;;;12.98;84.53;100250.81;4953878;28;20147;-84
2021/05/18 14:24:08;;;;;;;11.57;8.40;;;11.70;99.90;;;12.83;83.96;100254.66;4956490;29;20070;-84
2021/05/18 14:26:35;;;;;;;10.98;7.07;;;11.60;99.90;;;12.80;83.53;100255.41;4963190;28;20047;-85
2021/05/18 14:29:03;;;;;;;9.82;7.28;;;11.60;99.90;;;12.71;83.89;100252.09;4970728;28;20027;-87
2021/05/18 14:31:33;;;;;;;12.13;7.47;;;11.50;99.90;;;12.78;84.64;100254.97;4958051;28;20028;-86
2021/05/18 14:33:58;;;;;;;10.38;7.25;;;11.50;99.90;;;12.98;83.62;100255.59;4972479;28;20028;-85
2021/05/18 14:36:26;;;;;;;10.43;7.18;;;11.50;99.90;;;13.07;82.89;100256.09;4943037;28;20479;-85
2021/05/18 14:38:52;;;;;;;10.73;7.03;;;11.60;99.90;;;13.37;82.86;100262.47;4940487;29;20035;-86
2021/05/18 14:44:06;;;;;;;8.40;5.60;;;12.30;99.90;;;14.97;77.96;100267.09;4940331;28;20099;-82
2021/05/18 14:54:54;;;;;;;5.15;3.90;;;15.30;99.90;;;17.39;70.57;100275.63;4941241;29;20036;-87
2021/05/18 14:57:23;;;;;;;5.32;3.47;;;15.70;99.90;;;17.80;67.16;100272.91;4947396;28;20044;-82
2021/05/18 14:59:51;;;;;;;4.80;3.33;;;15.90;99.90;;;18.18;65.01;100262.47;4961785;28;20035;-83
2021/05/18 15:02:26;;;;;;;6.15;3.53;;;16.10;99.90;;;17.89;66.06;100273.25;4960221;28;20042;-85
2021/05/18 15:04:55;;;;;;;7.90;4.03;;;16.10;99.90;;;17.73;65.32;100275.78;4939535;29;20035;-85
2021/05/18 15:07:21;;;;;;;4.50;4.03;;;16.00;99.90;;;17.42;64.92;100265.50;4929808;29;20123;-83
2021/05/18 15:09:47;;;;;;;4.72;4.00;;;15.80;99.90;;;17.40;66.29;100268.78;4938002;29;20128;-85
2021/05/18 15:12:37;;;;;;;5.70;4.28;;;15.70;99.90;;;17.42;64.17;100279.63;4953926;28;20028;-85
2021/05/18 15:15:12;;;;;;;6.88;4.80;;;15.50;99.90;;;17.19;66.34;100271.72;4937917;28;20118;-84
2021/05/18 15:17:41;;;;;;;6.05;5.00;;;15.40;99.90;;;17.32;64.87;100267.19;4956166;28;20082;-84
2021/05/18 15:20:08;;;;;;;7.20;5.47;;;15.40;99.90;;;17.03;62.55;100268.56;4959682;28;20040;-84
2021/05/18 15:22:35;;;;;;;9.63;5.30;;;15.30;99.90;;;17.14;64.15;100280.63;4939407;28;20050;-84
2021/05/18 15:25:22;;;;;;;9.52;5.72;;;15.20;99.90;;;17.20;65.19;100271.31;4951188;29;20110;-83
2021/05/18 15:28:26;;;;;;;6.68;4.88;;;15.20;99.90;;;17.23;63.40;100273.31;4939059;29;20028;-85
2021/05/18 15:31:07;;;;;;;6.60;5.35;;;15.30;99.90;;;17.31;63.73;100269.22;4940034;28;20032;-84
2021/05/18 15:33:37;;;;;;;7.30;5.28;;;15.30;99.90;;;17.26;64.46;100280.13;4939570;28;20071;-86
2021/05/18 15:36:19;;;;;;;12.75;6.75;;;15.30;99.90;;;17.00;63.72;100291.97;4953889;28;20028;-84
2021/05/18 15:39:28;;;;;;;10.20;6.97;;;15.10;99.90;;;16.23;68.25;100328.41;4940070;29;20038;-86
2021/05/18 15:42:05;;;;;;;4.22;2.42;;;14.70;99.90;;;14.99;62.41;100337.84;4921401;29;20043;-84
2021/05/18 15:44:43;;;;;;;5.60;3.20;;;14.00;99.90;;;14.21;68.30;100343.78;4920422;29;20040;-84
2021/05/18 15:47:24;;;;;;;5.88;3.05;;;13.10;99.90;;;13.34;67.80;100357.78;4918283;29;20033;-84
2021/05/18 15:49:56;;;;;;;4.15;2.03;;;12.40;99.90;;;13.02;70.37;100355.38;4939274;29;20114;-82
2021/05/18 15:52:24;;;;;;;5.20;1.95;;;11.80;99.90;;;12.78;72.54;100358.66;4939328;29;20039;-81
2021/05/18 15:54:53;;;;;;;3.55;1.90;;;11.50;99.90;;;12.44;72.67;100355.00;4939688;29;20023;-81
2021/05/18 15:57:24;;;;;;;1.88;1.27;;;11.20;99.90;;;12.15;76.68;100345.34;4939147;29;20108;-83
2021/05/18 15:59:50;;;;;;;3.28;1.40;;;11.00;99.90;;;11.95;77.05;100332.63;4939284;29;20034;-85
2021/05/18 16:02:22;;;;;;;3.08;1.52;;;10.70;99.90;;;11.86;77.38;100343.28;4959487;28;20548;-87
2021/05/18 16:04:56;;;;;;;1.73;1.50;;;10.50;99.90;;;11.72;79.46;100333.84;4959694;28;20107;-84
2021/05/18 16:07:27;;;;;;;2.72;1.10;;;10.40;99.90;;;11.79;79.65;100317.16;4936281;29;20027;-84
2021/05/18 16:10:09;;;;;;;2.92;1.75;;;10.30;99.90;;;11.71;79.61;100312.63;4958269;28;20038;-83
2021/05/18 16:13:14;;;;;;;1.92;1.30;;;10.30;99.90;;;11.84;80.13;100292.47;4938575;29;20504;-84
2021/05/18 16:16:16;;;;;;;;;;;;;;;;;;;;;
2021/05/18 16:18:45;;;;;;;1.17;1.08;;;10.90;99.90;;;13.58;76.89;100276.66;4944441;29;20110;-84
2021/05/18 16:21:17;;;;;;;1.52;0.70;;;11.70;99.90;;;14.43;72.18;100285.75;4941779;28;20027;-82
2021/05/18 16:23:53;;;;;;;1.67;0.85;;;12.40;99.90;;;14.81;72.20;100283.50;4941989;29;20038;-86
2021/05/18 16:26:25;;;;;;;;;;;12.70;99.90;;;14.72;75.44;100284.69;4943445;28;20027;-85
2021/05/18 16:28:52;;;;;;;2.92;1.10;;;13.00;99.90;;;14.53;74.53;100270.97;4940104;29;20009;-81
2021/05/18 16:31:20;;;;;;;3.35;1.70;;;13.00;99.90;;;14.48;76.49;100279.75;4941954;29;20036;-84
2021/05/18 16:33:47;;;;;;;3.55;1.58;;;12.90;99.90;;;14.20;77.40;100291.59;4955997;28;20169;-83
2021/05/18 16:36:15;;;;;;;3.20;1.52;;;12.80;99.90;;;14.12;76.92;100294.75;4939369;29;20036;-81
2021/05/18 16:38:43;;;;;;;2.45;1.70;;;12.70;99.90;;;13.57;80.21;100302.31;4955507;28;20031;-85
2021/05/18 16:41:10;;;;;;;3.53;1.42;;;12.40;99.90;;;13.56;80.92;100309.13;4954763;28;20377;-81
2021/05/18 16:43:37;;;;;;;2.15;1.38;;;12.30;99.90;;;13.61;82.43;100300.38;4938558;28;20034;-85
2021/05/18 16:46:04;;;;;;;2.47;1.50;;;12.30;99.90;;;13.72;79.99;100310.47;4957566;28;20087;-84
2021/05/18 16:48:32;;;;;;;2.10;1.38;;;12.30;99.90;;;13.65;81.34;100313.22;4954792;28;20035;-84
2021/05/18 16:51:04;;;;;;;2.80;1.42;;;12.30;99.90;;;13.61;80.31;100309.56;4938810;28;20095;-87
2021/05/18 16:53:34;;;;;;;2.80;1.35;;;12.20;99.90;;;13.50;81.30;100316.28;4939598;29;20091;-83
2021/05/18 16:56:05;;;;;;;2.63;1.58;;;12.20;99.90;;;13.22;80.08;100307.56;4953695;29;20036;-83
2021/05/18 16:58:31;;;;;;;2.38;1.33;;;12.10;99.90;;;13.19;81.41;100312.78;4936666;28;20265;-84
2021/05/18 17:00:57;;;;;;;2.90;1.58;;;12.00;99.90;;;13.07;81.76;100312.16;4936951;29;20044;-85
2021/05/18 17:03:33;;;;;;;2.38;1.40;;;12.00;99.90;;;13.10;80.94;100315.03;4937823;29;20091;-84
2021/05/18 17:06:09;;;;;;;3.30;1.33;;;11.90;99.90;;;12.97;80.13;100322.06;4941728;29;20041;-83
2021/05/18 17:08:34;;;;;;;1.70;1.10;;;11.70;99.90;;;13.01;81.25;100317.31;4936943;29;20038;-86
2021/05/18 17:11:03;;;;;;;1.92;1.40;;;11.80;99.90;;;13.01;80.91;100316.50;4936576;29;20040;-83
2021/05/18 17:13:29;;;;;;;3.08;1.52;;;11.70;99.90;;;12.99;80.71;100316.91;4939871;29;20055;-88
2021/05/18 17:15:56;;;;;;;1.88;1.23;;;11.70;99.90;;;13.00;79.88;100320.53;4953339;29;20028;-82
2021/05/18 17:18:23;;;;;;;2.22;1.65;;;11.60;99.90;;;12.98;80.33;100322.88;4950648;28;20043;-84
2021/05/18 17:20:49;;;;;;;1.73;1.15;;;11.60;99.90;;;12.95;79.72;100318.84;4938184;29;20023;-85
2021/05/18 17:23:15;;;;;;;3.38;1.40;;;11.60;99.90;;;13.02;80.19;100318.13;4936467;29;20103;-85
2021/05/18 17:25:42;;;;;;;1.30;1.20;;;11.50;99.90;;;12.97;79.31;100330.47;4937022;29;20047;-83
2021/05/18 17:28:08;;;;;;;2.55;1.67;;;11.50;99.90;;;13.00;78.72;100324.09;4935702;29;20480;-85
2021/05/18 17:30:34;;;;;;;2.22;1.65;;;11.60;99.90;;;12.95;78.64;100316.03;4937612;28;20424;-84
2021/05/18 17:33:00;;;;;;;2.70;1.40;;;11.60;99.90;;;13.05;78.40;100326.59;4936976;29;20543;-84
2021/05/18 17:35:26;;;;;;;2.97;1.25;;;11.50;99.90;;;13.08;78.24;100320.25;4936077;29;20027;-86
2021/05/18 17:37:53;;;;;;;5.00;1.30;;;11.50;99.90;;;12.99;78.64;100322.50;4937125;29;20482;-83
2021/05/18 17:40:21;;;;;;;2.72;1.58;;;11.60;99.90;;;13.05;78.42;100329.38;4938671;29;20028;-86
2021/05/18 17:42:47;;;;;;;3.78;1.52;;;11.60;99.90;;;13.03;77.14;100319.75;4939159;29;20027;-82
2021/05/18 17:45:16;;;;;;;3.13;1.52;;;11.60;99.90;;;13.02;78.37;100327.34;4937581;28;20395;-82
2021/05/18 17:47:44;;;;;;;2.38;1.60;;;11.60;99.90;;;13.07;77.36;100329.81;4937500;28;20503;-85
2021/05/18 17:50:17;;;;;;;1.73;1.30;;;11.60;99.90;;;13.07;77.34;100332.59;4974894;23;20351;-86
2021/05/18 17:52:44;;;;;;;2.65;1.45;;;11.60;99.90;;;13.00;77.04;100338.13;4940028;29;20035;-85
2021/05/18 17:55:19;;;;;;;3.40;1.58;;;11.50;99.90;;;12.90;77.08;100333.22;4949569;29;20202;-87
2021/05/18 17:57:45;;;;;;;1.80;1.38;;;11.40;99.90;;;12.76;77.24;100340.63;4941672;29;20115;-84
2021/05/18 18:00:12;;;;;;;2.88;1.90;;;11.40;99.90;;;12.71;77.05;100340.97;4956393;28;20043;-83
2021/05/18 18:02:40;;;;;;;3.67;2.05;;;11.30;99.90;;;12.64;76.94;100336.88;4959414;28;20112;-85
2021/05/18 18:05:08;;;;;;;2.55;2.00;;;11.30;99.90;;;12.67;77.12;100336.13;4965358;28;20157;-83
2021/05/18 18:07:39;;;;;;;2.85;2.10;;;11.20;99.90;;;12.65;77.37;100343.25;4961961;28;20166;-87
2021/05/18 18:10:20;;;;;;;2.95;1.85;;;11.20;99.90;;;12.60;77.91;100350.03;4962388;28;20027;-84
2021/05/18 18:12:56;;;;;;;3.92;1.90;;;11.10;99.90;;;12.54;77.70;100353.53;4960063;29;20487;-86
2021/05/18 18:15:25;;;;;;;3.00;1.90;;;11.10;99.90;;;12.51;78.25;100351.50;4960278;28;20137;-86
2021/05/18 18:17:54;;;;;;;2.80;1.80;;;11.00;99.90;;;12.46;77.74;100354.59;4960492;29;20062;-86
2021/05/18 18:20:20;;;;;;;2.22;1.67;;;11.00;99.90;;;12.41;78.17;100360.53;4961037;28;20053;-85
2021/05/18 18:22:51;;;;;;;2.00;1.48;;;10.90;99.90;;;12.31;78.96;100364.78;4959819;29;20041;-85
2021/05/18 18:25:17;;;;;;;2.53;1.92;;;10.80;99.90;;;12.27;79.36;100365.91;4960411;29;20038;-87
2021/05/18 18:27:45;;;;;;;2.40;2.17;;;10.80;99.90;;;12.21;79.60;100361.81;4961735;28;20087;-86
2021/05/18 18:30:36;;;;;;;6.03;2.15;;;10.80;99.90;;;12.13;80.45;100372.13;4959966;28;20023;-87
2021/05/18 18:33:03;;;;;;;3.97;1.95;;;10.70;99.90;;;12.05;82.08;100365.59;4959368;28;20099;-84
2021/05/18 18:35:29;;;;;;;2.17;1.98;;;10.60;99.90;;;12.04;82.47;100369.56;4960460;29;20083;-86
2021/05/18 18:38:00;;;;;;;3.65;2.50;;;10.60;99.90;;;11.97;81.82;100371.44;4961122;29;20046;-85
2021/05/18 18:40:31;;;;;;;3.47;2.40;;;10.60;99.90;;;12.07;81.77;100362.44;4960773;28;20031;-86
2021/05/18 18:42:58;;;;;;;2.72;2.22;;;10.70;99.90;;;12.07;82.00;100360.41;4961525;28;20464;-88
2021/05/18 18:45:44;;;;;;;5.40;2.85;;;10.60;99.90;;;12.01;82.10;100370.31;4959546;29;20042;-84
2021/05/18 18:48:17;;;;;;;3.58;2.95;;;10.50;99.90;;;11.90;82.26;100371.31;4960223;28;20556;-86
2021/05/18 18:54:16;;;;;;;3.85;2.60;;;10.40;99.90;;;11.79;82.81;100379.53;4946896;28;20028;-85
2021/05/18 18:56:52;;;;;;;4.50;2.65;;;10.40;99.90;;;11.78;82.95;100382.72;4938818;29;20444;-86
2021/05/18 18:59:33;;;;;;;3.97;3.00;;;10.30;99.90;;;11.74;83.70;100387.41;4960198;28;20043;-84
2021/05/18 19:02:28;;;;;;;3.47;2.67;;;10.30;99.90;;;11.79;83.56;100387.09;4938811;28;20042;-84
2021/05/18 19:08:26;;;;;;;6.80;3.22;;;10.40;99.90;;;11.91;84.19;100395.34;4947288;28;20027;-85
2021/05/18 19:13:42;;;;;;;7.53;3.30;;;10.40;99.90;;;11.96;83.33;100390.22;4967387;29;20050;-85
2021/05/18 19:16:08;;;;;;;5.32;2.72;;;10.50;99.90;;;11.94;83.82;100403.78;4964684;28;20391;-87
2021/05/18 19:18:34;;;;;;;5.50;3.67;;;10.50;99.90;;;11.92;83.98;100406.13;4957530;28;20054;-84
2021/05/18 19:21:10;;;;;;;3.75;3.42;;;10.40;99.90;;;11.88;83.70;100404.47;4949434;28;20028;-83
2021/05/18 19:23:39;;;;;;;3.88;3.10;;;10.40;99.90;;;11.80;84.16;100411.13;4958490;29;20025;-85
2021/05/18 19:26:10;;;;;;;5.45;3.15;;;10.30;99.90;;;11.73;85.26;100417.38;4949339;28;20035;-85
2021/05/18 19:28:43;;;;;;;4.45;3.47;;;10.30;99.90;;;11.65;85.45;100410.03;4945701;29;20084;-84
2021/05/18 19:31:17;;;;;;;5.20;3.53;;;10.20;99.90;;;11.60;85.81;100413.09;4945481;28;20027;-87